createdAt,value
2019-01-25T00:01:12.624Z,91.70
2019-01-25T00:03:39.338Z,91.65
2019-01-25T00:06:06.655Z,91.56
2019-01-25T00:08:33.325Z,91.39
2019-01-25T00:10:59.947Z,91.32
2019-01-25T00:13:26.570Z,91.21
2019-01-25T00:15:53.131Z,91.19
2019-01-25T00:18:19.917Z,91.28
2019-01-25T00:20:46.417Z,91.33
2019-01-25T00:23:13.299Z,91.46
2019-01-25T00:25:39.984Z,91.59
2019-01-25T00:28:06.465Z,91.62
2019-01-25T00:30:33.030Z,91.52
2019-01-25T00:32:59.665Z,91.39
2019-01-25T00:35:27.096Z,91.28
2019-01-25T00:37:53.679Z,91.19
2019-01-25T00:40:20.401Z,91.06
2019-01-25T00:42:47.368Z,90.89
2019-01-25T00:45:14.326Z,90.84
2019-01-25T00:47:40.934Z,90.85
2019-01-25T00:50:11.687Z,90.88
2019-01-25T00:52:38.195Z,90.99
2019-01-25T00:55:05.388Z,91.10
2019-01-25T00:57:32.121Z,91.23
2019-01-25T00:59:58.583Z,91.25
2019-01-25T01:02:25.466Z,91.22
2019-01-25T01:04:52.218Z,91.22
2019-01-25T01:07:19.921Z,91.17
2019-01-25T01:09:46.648Z,91.16
2019-01-25T01:12:13.461Z,91.19
2019-01-25T01:14:40.019Z,91.21
2019-01-25T01:17:07.007Z,91.27
2019-01-25T01:19:34.820Z,91.33
2019-01-25T01:22:01.850Z,91.36
2019-01-25T01:24:28.394Z,91.41
2019-01-25T01:26:54.945Z,91.37
2019-01-25T01:29:21.762Z,91.31
2019-01-25T01:31:48.509Z,91.31
2019-01-25T01:34:15.050Z,91.32
2019-01-25T01:36:42.581Z,91.32
2019-01-25T01:39:09.572Z,91.31
2019-01-25T01:41:36.170Z,91.28
2019-01-25T01:44:03.106Z,91.38
2019-01-25T01:46:29.711Z,91.43
2019-01-25T01:48:56.291Z,91.58
2019-01-25T01:51:22.920Z,91.67
2019-01-25T01:53:49.394Z,91.73
2019-01-25T01:56:15.996Z,91.91
2019-01-25T01:58:42.552Z,92.04
2019-01-25T02:01:09.262Z,92.18
2019-01-25T02:03:35.944Z,92.30
2019-01-25T02:06:02.705Z,92.43
2019-01-25T02:08:29.361Z,92.45
2019-01-25T02:10:56.102Z,92.52
2019-01-25T02:13:23.163Z,92.61
2019-01-25T02:15:49.836Z,92.69
2019-01-25T02:18:16.334Z,92.83
2019-01-25T02:20:42.981Z,92.96
2019-01-25T02:23:09.636Z,93.07
2019-01-25T02:25:36.299Z,93.20
2019-01-25T02:28:03.034Z,93.27
2019-01-25T02:30:29.750Z,93.32
2019-01-25T02:32:57.368Z,93.29
2019-01-25T02:35:23.971Z,93.38
2019-01-25T02:37:50.703Z,93.41
2019-01-25T02:40:19.470Z,93.46
2019-01-25T02:42:46.228Z,93.52
2019-01-25T02:45:23.771Z,93.56
2019-01-25T02:47:50.653Z,93.56
2019-01-25T02:50:17.793Z,93.58
2019-01-25T02:52:44.680Z,93.53
2019-01-25T02:55:11.655Z,93.55
2019-01-25T02:57:38.359Z,93.54
2019-01-25T03:00:17.585Z,93.51
2019-01-25T03:02:44.716Z,93.50
2019-01-25T03:05:13.615Z,93.47
2019-01-25T03:07:40.123Z,93.44
2019-01-25T03:10:09.021Z,93.43
2019-01-25T03:12:35.781Z,93.42
2019-01-25T03:15:02.686Z,93.37
2019-01-25T03:17:29.470Z,93.33
2019-01-25T03:19:56.143Z,93.33
2019-01-25T03:22:23.062Z,93.37
2019-01-25T03:24:49.654Z,93.38
2019-01-25T03:27:16.200Z,93.38
2019-01-25T03:29:42.733Z,93.43
2019-01-25T03:32:09.365Z,93.46
2019-01-25T03:34:36.117Z,93.47
2019-01-25T03:37:02.906Z,93.49
2019-01-25T03:39:29.472Z,93.51
2019-01-25T03:41:55.907Z,93.53
2019-01-25T03:44:22.528Z,93.40
2019-01-25T03:46:49.051Z,93.33
2019-01-25T03:49:16.068Z,93.22
2019-01-25T03:51:42.736Z,93.19
2019-01-25T03:54:10.129Z,93.18
2019-01-25T03:56:36.819Z,93.21
2019-01-25T03:59:03.743Z,93.23
2019-01-25T04:01:30.237Z,93.22
2019-01-25T04:03:56.742Z,93.21
2019-01-25T04:06:23.856Z,93.21
2019-01-25T04:08:50.669Z,93.26
2019-01-25T04:11:17.622Z,93.29
2019-01-25T04:13:44.175Z,93.33
2019-01-25T04:16:10.880Z,93.35
2019-01-25T04:18:37.345Z,93.40
2019-01-25T04:21:03.957Z,93.42
2019-01-25T04:23:30.513Z,93.41
2019-01-25T04:25:57.170Z,93.43
2019-01-25T04:28:23.689Z,93.45
2019-01-25T04:30:50.352Z,93.42
2019-01-25T04:33:19.079Z,93.41
2019-01-25T04:35:47.210Z,93.37
2019-01-25T04:38:13.699Z,93.41
2019-01-25T04:40:40.452Z,93.47
2019-01-25T04:43:07.094Z,93.51
2019-01-25T04:45:33.813Z,93.50
2019-01-25T04:48:00.390Z,93.43
2019-01-25T04:50:27.269Z,93.40
2019-01-25T04:52:54.286Z,93.36
2019-01-25T04:55:25.717Z,93.35
2019-01-25T04:57:52.367Z,93.34
2019-01-25T05:00:19.705Z,93.36
2019-01-25T05:02:54.574Z,93.38
2019-01-25T05:05:21.430Z,93.42
2019-01-25T05:07:49.443Z,93.38
2019-01-25T05:10:15.995Z,93.38
2019-01-25T05:12:53.090Z,93.33
2019-01-25T05:15:19.383Z,93.27
2019-01-25T05:17:52.876Z,93.21
2019-01-25T05:20:19.564Z,93.16
2019-01-25T05:22:52.347Z,93.07
2019-01-25T05:25:21.429Z,93.03
2019-01-25T05:27:47.953Z,92.98
2019-01-25T05:30:14.657Z,92.97
2019-01-25T05:32:41.229Z,92.92
2019-01-25T05:35:07.935Z,92.87
2019-01-25T05:37:34.752Z,92.83
2019-01-25T05:40:01.404Z,92.84
2019-01-25T05:42:27.868Z,92.84
2019-01-25T05:44:54.699Z,92.83
2019-01-25T05:47:21.603Z,92.79
2019-01-25T05:49:48.146Z,92.78
2019-01-25T05:52:17.207Z,92.74
2019-01-25T05:54:43.819Z,92.70
2019-01-25T05:57:10.481Z,92.69
2019-01-25T05:59:37.017Z,92.67
2019-01-25T06:02:03.790Z,92.57
2019-01-25T06:04:34.971Z,92.55
2019-01-25T06:07:02.223Z,92.53
2019-01-25T06:09:28.749Z,92.52
2019-01-25T06:11:55.628Z,92.47
2019-01-25T06:14:22.296Z,92.46
2019-01-25T06:16:51.116Z,92.41
2019-01-25T06:19:17.710Z,92.42
2019-01-25T06:21:44.223Z,92.45
2019-01-25T06:24:11.169Z,92.44
2019-01-25T06:26:41.885Z,92.46
2019-01-25T06:29:08.386Z,92.46
2019-01-25T06:31:34.896Z,92.46
2019-01-25T06:34:01.710Z,92.46
2019-01-25T06:36:32.021Z,92.47
2019-01-25T06:38:58.549Z,92.47
2019-01-25T06:41:25.129Z,92.49
2019-01-25T06:43:51.914Z,92.56
2019-01-25T06:46:18.403Z,92.55
2019-01-25T06:48:47.679Z,92.55
2019-01-25T06:51:14.218Z,92.47
2019-01-25T06:53:40.831Z,92.40
2019-01-25T06:56:07.698Z,92.42
2019-01-25T06:58:42.653Z,92.30
2019-01-25T07:01:31.829Z,92.21
2019-01-25T07:03:58.749Z,92.19
2019-01-25T07:06:25.313Z,92.20
2019-01-25T07:08:54.377Z,92.18
2019-01-25T07:11:22.891Z,92.17
2019-01-25T07:13:52.052Z,92.17
2019-01-25T07:16:18.592Z,92.10
2019-01-25T07:18:45.241Z,91.90
2019-01-25T07:21:14.299Z,91.77
2019-01-25T07:23:41.966Z,91.70
2019-01-25T07:26:08.697Z,91.71
2019-01-25T07:28:35.284Z,91.64
2019-01-25T07:31:02.175Z,91.64
2019-01-25T07:33:28.837Z,91.56
2019-01-25T07:35:55.693Z,91.42
2019-01-25T07:38:22.254Z,91.45
2019-01-25T07:40:51.381Z,91.42
2019-01-25T07:43:18.083Z,91.29
2019-01-25T07:45:44.712Z,91.06
2019-01-25T07:48:14.245Z,91.03
2019-01-25T07:50:41.641Z,90.86
2019-01-25T07:53:08.245Z,90.71
2019-01-25T07:55:34.808Z,90.56
2019-01-25T07:58:01.336Z,90.69
2019-01-25T08:44:04.669Z,85.34
2019-01-25T08:46:31.229Z,84.81
2019-01-25T08:48:58.972Z,84.63
2019-01-25T08:51:25.895Z,84.71
2019-01-25T08:53:53.097Z,84.65
2019-01-25T08:56:19.789Z,84.10
2019-01-25T08:58:46.797Z,83.69
2019-01-25T09:01:13.461Z,83.38
2019-01-25T09:03:40.148Z,83.56
2019-01-25T09:06:07.143Z,83.38
2019-01-25T09:08:34.295Z,82.95
2019-01-25T09:11:01.296Z,82.78
2019-01-25T09:13:27.841Z,82.32
2019-01-25T09:15:54.427Z,82.14
2019-01-25T09:18:21.426Z,81.87
2019-01-25T09:20:48.116Z,81.03
2019-01-25T09:23:14.929Z,81.12
2019-01-25T09:25:41.561Z,80.85
2019-01-25T09:28:08.177Z,81.24
2019-01-25T09:30:34.713Z,80.57
2019-01-25T09:33:01.315Z,79.93
2019-01-25T09:35:29.064Z,80.57
2019-01-25T09:37:55.715Z,80.27
2019-01-25T09:40:23.054Z,79.79
2019-01-25T09:42:51.149Z,79.53
2019-01-25T09:45:18.191Z,79.26
2019-01-25T09:47:44.890Z,79.47
2019-01-25T09:50:13.400Z,78.86
2019-01-25T09:52:41.216Z,78.58
2019-01-25T09:55:10.570Z,78.49
2019-01-25T09:57:39.201Z,78.28
2019-01-25T10:00:16.735Z,78.69
2019-01-25T10:02:43.683Z,78.40
2019-01-25T10:05:10.272Z,78.80
2019-01-25T10:07:36.842Z,78.43
2019-01-25T10:10:04.862Z,78.22
2019-01-25T10:12:36.116Z,77.82
2019-01-25T10:14:59.977Z,77.53
2019-01-25T10:17:27.860Z,77.37
2019-01-25T10:19:54.413Z,77.36
2019-01-25T10:22:21.097Z,77.17
2019-01-25T10:24:50.131Z,76.63
2019-01-25T10:27:16.671Z,76.33
2019-01-25T10:29:43.201Z,75.98
2019-01-25T10:32:10.004Z,75.74
2019-01-25T10:34:36.682Z,75.92
2019-01-25T10:37:03.429Z,75.70
2019-01-25T10:39:32.582Z,75.91
2019-01-25T10:41:59.114Z,75.26
2019-01-25T10:44:25.638Z,75.24
2019-01-25T10:46:58.225Z,75.30
2019-01-25T10:49:24.721Z,74.72
2019-01-25T10:51:51.575Z,74.72
2019-01-25T10:54:18.645Z,74.25
2019-01-25T10:56:45.240Z,74.41
2019-01-25T10:59:11.872Z,74.59
2019-01-25T11:01:38.542Z,74.29
2019-01-25T11:04:05.511Z,74.24
2019-01-25T11:06:32.050Z,73.79
2019-01-25T11:08:58.559Z,73.77
2019-01-25T11:11:25.094Z,73.69
2019-01-25T11:13:51.822Z,73.53
2019-01-25T11:16:18.375Z,73.46
2019-01-25T11:18:45.333Z,73.11
2019-01-25T11:21:11.885Z,73.66
2019-01-25T11:23:39.649Z,73.94
2019-01-25T11:26:06.254Z,73.39
2019-01-25T11:28:32.802Z,72.92
2019-01-25T11:30:59.410Z,72.88
2019-01-25T11:33:26.105Z,72.56
2019-01-25T11:35:52.771Z,72.36
2019-01-25T11:38:20.366Z,73.13
2019-01-25T11:40:46.889Z,73.08
2019-01-25T11:43:13.564Z,73.15
2019-01-25T11:45:42.235Z,72.76
2019-01-25T11:48:14.212Z,72.77
2019-01-25T11:50:41.686Z,72.59
2019-01-25T11:53:24.279Z,72.74
2019-01-25T11:55:59.967Z,72.49
2019-01-25T11:58:26.515Z,72.70
2019-01-25T12:00:53.294Z,72.49
2019-01-25T12:03:20.601Z,73.09
2019-01-25T12:05:47.242Z,72.60
2019-01-25T12:08:13.819Z,72.21
2019-01-25T12:10:42.571Z,72.38
2019-01-25T12:13:15.850Z,72.03
2019-01-25T12:15:38.026Z,72.06
2019-01-25T12:18:04.690Z,72.33
2019-01-25T12:20:33.241Z,72.83
2019-01-25T12:23:00.348Z,72.51
2019-01-25T12:25:27.062Z,72.70
2019-01-25T12:27:54.113Z,72.79
2019-01-25T12:30:30.485Z,73.19
2019-01-25T12:32:57.222Z,72.92
2019-01-25T12:35:23.999Z,73.11
2019-01-25T12:37:51.026Z,72.71
2019-01-25T12:40:17.597Z,71.74
2019-01-25T12:42:44.360Z,71.45
2019-01-25T12:45:16.734Z,71.65
2019-01-25T12:47:43.443Z,72.07
2019-01-25T12:50:15.812Z,71.54
2019-01-25T12:52:42.306Z,71.53
2019-01-25T12:55:09.082Z,71.23
2019-01-25T12:57:35.542Z,72.30
2019-01-25T13:00:03.136Z,72.22
2019-01-25T13:02:29.742Z,72.16
2019-01-25T13:04:56.272Z,72.11
2019-01-25T13:07:23.138Z,72.00
2019-01-25T13:09:49.696Z,70.54
2019-01-25T13:12:16.542Z,70.86
2019-01-25T13:14:43.148Z,69.76
2019-01-25T13:17:09.627Z,70.53
2019-01-25T13:19:42.834Z,70.24
2019-01-25T13:22:09.365Z,69.05
2019-01-25T13:24:35.940Z,69.56
2019-01-25T13:27:02.480Z,69.46
2019-01-25T13:29:29.075Z,69.74
2019-01-25T13:31:55.675Z,69.82
2019-01-25T13:34:24.517Z,69.76
2019-01-25T13:36:57.045Z,69.76
2019-01-25T13:39:19.673Z,70.15
2019-01-25T13:41:46.301Z,69.36
2019-01-25T13:44:13.147Z,69.60
2019-01-25T13:46:39.691Z,70.39
2019-01-25T13:49:06.330Z,70.61
2019-01-25T13:51:33.967Z,69.93
2019-01-25T13:54:00.439Z,70.12
2019-01-25T13:56:27.471Z,69.18
2019-01-25T13:58:53.976Z,68.71
2019-01-25T14:01:20.547Z,68.21
2019-01-25T14:03:48.002Z,68.40
2019-01-25T14:06:14.607Z,68.23
2019-01-25T14:08:41.862Z,68.56
2019-01-25T14:11:09.831Z,68.05
2019-01-25T14:13:36.523Z,67.36
2019-01-25T14:16:03.651Z,67.22
2019-01-25T14:18:30.138Z,67.17
2019-01-25T14:20:56.899Z,67.60
2019-01-25T14:23:23.457Z,68.00
2019-01-25T14:25:51.089Z,67.22
2019-01-25T14:28:18.965Z,66.74
2019-01-25T14:30:45.890Z,66.89
2019-01-25T14:33:12.527Z,67.68
2019-01-25T14:35:39.601Z,67.91
2019-01-25T14:38:08.045Z,67.97
2019-01-25T14:40:34.965Z,67.96
2019-01-25T14:43:01.683Z,68.05
2019-01-25T14:45:28.507Z,68.31
2019-01-25T14:47:55.072Z,68.63
2019-01-25T14:50:22.060Z,68.67
2019-01-25T14:52:49.918Z,68.81
2019-01-25T14:55:16.374Z,68.55
2019-01-25T14:57:43.028Z,69.10
2019-01-25T15:00:09.659Z,69.58
2019-01-25T15:02:43.278Z,69.44
2019-01-25T15:05:12.486Z,69.61
2019-01-25T15:07:42.961Z,69.93
2019-01-25T15:10:14.942Z,69.84
2019-01-25T15:12:41.862Z,69.98
2019-01-25T15:15:10.087Z,70.10
2019-01-25T15:17:36.794Z,70.24
2019-01-25T15:20:05.706Z,70.04
2019-01-25T15:22:32.306Z,70.41
2019-01-25T15:25:00.195Z,70.53
2019-01-25T15:27:27.571Z,70.71
2019-01-25T15:29:54.614Z,71.02
2019-01-25T15:32:21.166Z,71.33
2019-01-25T15:34:47.935Z,71.46
2019-01-25T15:37:14.519Z,71.91
2019-01-25T15:39:41.340Z,72.15
2019-01-25T15:42:07.970Z,72.39
2019-01-25T15:44:34.507Z,72.43
2019-01-25T15:47:00.981Z,72.48
2019-01-25T15:49:28.659Z,72.68
2019-01-25T15:51:55.315Z,72.99
2019-01-25T15:54:21.855Z,73.66
2019-01-25T15:56:48.353Z,73.35
2019-01-25T15:59:14.863Z,73.41
2019-01-25T16:01:41.796Z,73.89
2019-01-25T16:04:08.402Z,74.05
2019-01-25T16:06:35.504Z,74.28
2019-01-25T16:09:04.226Z,74.62
2019-01-25T16:11:30.730Z,74.94
2019-01-25T16:13:57.565Z,75.16
2019-01-25T16:16:24.052Z,75.32
2019-01-25T16:18:50.788Z,75.07
2019-01-25T16:21:17.337Z,75.30
2019-01-25T16:23:43.798Z,75.54
2019-01-25T16:26:15.343Z,75.20
2019-01-25T16:28:42.148Z,75.23
2019-01-25T16:31:08.752Z,75.39
2019-01-25T16:33:35.260Z,75.74
2019-01-25T16:36:01.998Z,75.86
2019-01-25T16:38:28.512Z,76.37
2019-01-25T16:40:59.271Z,76.88
2019-01-25T16:44:08.110Z,76.74
2019-01-25T16:46:36.717Z,76.92
2019-01-25T16:49:03.702Z,77.12
2019-01-25T16:51:32.283Z,77.39
2019-01-25T16:53:59.084Z,77.29
2019-01-25T16:56:27.082Z,76.92
2019-01-25T16:58:59.347Z,76.77
2019-01-25T17:01:35.323Z,76.51
2019-01-25T17:04:02.267Z,76.14
2019-01-25T17:06:29.487Z,76.14
2019-01-25T17:08:56.046Z,75.77
2019-01-25T17:11:22.745Z,75.59
2019-01-25T17:13:49.375Z,75.55
2019-01-25T17:16:16.123Z,75.26
2019-01-25T17:18:42.758Z,75.30
2019-01-25T17:21:09.372Z,75.41
2019-01-25T17:23:36.222Z,74.86
2019-01-25T17:26:03.934Z,74.61
2019-01-25T17:28:30.470Z,74.74
2019-01-25T17:30:57.160Z,74.79
2019-01-25T17:33:23.754Z,74.85
2019-01-25T17:35:50.789Z,75.18
2019-01-25T17:38:19.434Z,75.14
2019-01-25T17:40:47.034Z,75.41
2019-01-25T17:43:13.844Z,75.35
2019-01-25T17:45:41.575Z,75.83
2019-01-25T17:48:08.514Z,76.11
2019-01-25T17:50:35.185Z,75.97
2019-01-25T17:53:03.065Z,75.98
2019-01-25T17:55:29.755Z,76.24
2019-01-25T17:57:56.316Z,76.43
2019-01-25T18:00:28.006Z,76.08
2019-01-25T18:02:54.760Z,76.60
2019-01-25T18:05:21.819Z,76.73
2019-01-25T18:07:48.639Z,76.63
2019-01-25T18:10:15.340Z,76.82
2019-01-25T18:12:42.140Z,76.72
2019-01-25T18:15:09.828Z,76.14
2019-01-25T18:17:36.935Z,76.10
2019-01-25T18:20:04.244Z,76.17
2019-01-25T18:22:30.786Z,76.02
2019-01-25T18:25:01.792Z,75.76
2019-01-25T18:27:28.418Z,76.12
2019-01-25T18:29:57.125Z,76.28
2019-01-25T18:32:24.007Z,76.07
2019-01-25T18:34:50.647Z,75.93
2019-01-25T18:37:21.405Z,76.31
2019-01-25T18:39:48.231Z,76.76
2019-01-25T18:42:15.265Z,77.10
2019-01-25T18:44:41.853Z,77.07
2019-01-25T18:47:08.576Z,76.23
2019-01-25T18:49:35.142Z,76.62
2019-01-25T18:52:01.738Z,76.94
2019-01-25T18:54:28.494Z,77.33
2019-01-25T18:56:55.193Z,77.44
2019-01-25T18:59:21.841Z,78.26
2019-01-25T19:01:48.581Z,78.13
2019-01-25T19:04:15.243Z,77.67
2019-01-25T19:06:42.300Z,77.40
2019-01-25T19:09:09.268Z,76.90
2019-01-25T19:11:36.161Z,76.73
2019-01-25T19:14:03.013Z,77.18
2019-01-25T19:16:30.069Z,77.32
2019-01-25T19:18:56.603Z,77.56
2019-01-25T19:21:23.382Z,77.66
2019-01-25T19:23:49.971Z,77.78
2019-01-25T19:26:16.658Z,77.44
2019-01-25T19:28:43.141Z,77.56
2019-01-25T19:31:09.880Z,77.66
2019-01-25T19:33:36.534Z,77.72
2019-01-25T19:36:03.971Z,77.71
2019-01-25T19:38:30.519Z,77.37
2019-01-25T19:40:56.998Z,78.07
2019-01-25T19:43:24.700Z,77.89
2019-01-25T19:45:51.376Z,77.73
2019-01-25T19:48:17.905Z,78.09
2019-01-25T19:50:44.556Z,77.90
2019-01-25T19:53:11.169Z,77.79
2019-01-25T19:55:39.054Z,77.41
2019-01-25T19:58:07.500Z,76.96
2019-01-25T20:00:36.691Z,76.75
2019-01-25T20:03:04.153Z,76.66
2019-01-25T20:05:31.027Z,76.83
2019-01-25T20:07:57.854Z,76.63
2019-01-25T20:10:26.088Z,76.73
2019-01-25T20:12:52.820Z,77.10
2019-01-25T20:15:20.727Z,77.06
2019-01-25T20:17:47.322Z,76.94
2019-01-25T20:20:21.422Z,77.07
2019-01-25T20:22:49.094Z,76.83
2019-01-25T20:25:15.853Z,76.80
2019-01-25T20:27:42.696Z,76.50
2019-01-25T20:30:12.671Z,76.56
2019-01-25T20:32:46.413Z,77.38
2019-01-25T20:35:15.182Z,77.69
2019-01-25T20:37:43.930Z,77.95
2019-01-25T20:40:13.515Z,77.80
2019-01-25T20:42:40.560Z,78.20
2019-01-25T20:45:10.344Z,77.96
2019-01-25T20:47:37.893Z,78.06
2019-01-25T20:50:07.026Z,78.31
2019-01-25T20:52:33.490Z,78.51
2019-01-25T20:55:01.981Z,78.49
2019-01-25T20:57:29.591Z,79.14
2019-01-25T20:59:56.656Z,78.72
2019-01-25T21:02:24.493Z,78.84
2019-01-25T21:04:52.280Z,78.73
2019-01-25T21:07:23.560Z,79.37
2019-01-25T21:09:50.171Z,79.70
2019-01-25T21:12:16.789Z,79.74
2019-01-25T21:14:44.519Z,80.04
2019-01-25T21:17:11.355Z,80.17
2019-01-25T21:19:37.877Z,80.32
2019-01-25T21:22:04.581Z,80.76
2019-01-25T21:24:33.120Z,80.77
2019-01-25T21:26:59.782Z,80.78
2019-01-25T21:29:27.572Z,80.95
2019-01-25T21:31:54.179Z,81.18
2019-01-25T21:34:21.378Z,81.35
2019-01-25T21:36:49.155Z,81.62
2019-01-25T21:39:16.765Z,82.09
2019-01-25T21:41:44.625Z,82.53
2019-01-25T21:44:11.837Z,82.72
2019-01-25T21:46:40.369Z,83.04
2019-01-25T21:49:07.409Z,83.19
2019-01-25T21:51:33.941Z,83.65
2019-01-25T21:54:00.779Z,83.71
2019-01-25T21:56:27.676Z,83.76
2019-01-25T21:58:54.320Z,84.05
2019-01-25T22:01:20.827Z,83.85
2019-01-25T22:03:47.372Z,83.75
2019-01-25T22:06:15.072Z,83.92
2019-01-25T22:08:41.867Z,83.89
2019-01-25T22:11:08.602Z,84.14
2019-01-25T22:13:35.199Z,84.26
2019-01-25T22:16:06.993Z,84.33
2019-01-25T22:18:34.990Z,84.19
2019-01-25T22:21:01.477Z,83.68
2019-01-25T22:23:29.496Z,83.50
2019-01-25T22:25:55.965Z,83.74
2019-01-25T22:28:22.483Z,83.80
2019-01-25T22:30:49.148Z,83.80
2019-01-25T22:33:15.646Z,83.84
2019-01-25T22:35:42.413Z,83.92
2019-01-25T22:38:11.018Z,84.32
2019-01-25T22:40:37.676Z,84.30
2019-01-25T22:43:05.504Z,84.28
2019-01-25T22:45:32.304Z,84.47
2019-01-25T22:48:00.526Z,84.79
2019-01-25T22:50:28.916Z,85.05
2019-01-25T22:52:55.535Z,85.11
2019-01-25T22:55:23.735Z,85.66
2019-01-25T22:57:51.107Z,85.52
2019-01-25T23:01:22.020Z,85.61
2019-01-25T23:04:46.014Z,86.03
2019-01-25T23:07:18.339Z,86.31
2019-01-25T23:09:47.957Z,86.51
2019-01-25T23:12:14.668Z,86.40
2019-01-25T23:14:41.605Z,86.58
2019-01-25T23:17:08.326Z,86.44
2019-01-25T23:19:34.869Z,86.16
2019-01-25T23:22:01.665Z,86.73
2019-01-25T23:24:28.355Z,86.73
2019-01-25T23:26:54.877Z,87.05
2019-01-25T23:29:21.530Z,87.37
2019-01-25T23:31:51.158Z,87.43
2019-01-25T23:34:17.783Z,87.50
2019-01-25T23:36:44.292Z,87.50
2019-01-25T23:39:11.092Z,87.38
2019-01-25T23:41:37.789Z,87.17
2019-01-25T23:44:04.422Z,86.67
2019-01-25T23:46:31.248Z,86.63
2019-01-25T23:48:58.948Z,86.65
2019-01-25T23:51:26.579Z,86.42
2019-01-25T23:53:53.039Z,86.29
2019-01-25T23:56:19.678Z,85.95
2019-01-25T23:58:46.308Z,85.57
